createdAt,value
2017-12-27T00:00:05.633Z,988.17
2017-12-27T00:01:15.416Z,988.16
2017-12-27T00:02:25.466Z,988.1
2017-12-27T00:03:35.540Z,988.1
2017-12-27T00:04:45.328Z,988.09
2017-12-27T00:05:55.130Z,988.09
2017-12-27T00:07:05.162Z,988.01
2017-12-27T00:08:15.201Z,987.99
2017-12-27T00:09:24.978Z,988.06
2017-12-27T00:10:35.030Z,988.02
2017-12-27T00:11:45.085Z,988.01
2017-12-27T00:12:54.882Z,988.01
2017-12-27T00:14:04.934Z,987.94
2017-12-27T00:15:14.978Z,987.96
2017-12-27T00:16:25.027Z,988
2017-12-27T00:17:34.844Z,988.04
2017-12-27T00:18:44.686Z,988.02
2017-12-27T00:19:54.731Z,988
2017-12-27T00:21:04.783Z,987.97
2017-12-27T00:22:14.564Z,988
2017-12-27T00:23:24.618Z,988.02
2017-12-27T00:24:34.660Z,988.03
2017-12-27T00:25:44.697Z,988.01
2017-12-27T00:26:54.743Z,988.01
2017-12-27T00:28:04.537Z,988.02
2017-12-27T00:29:14.323Z,988.05
2017-12-27T00:30:24.375Z,988.02
2017-12-27T00:31:34.421Z,987.99
2017-12-27T00:32:44.482Z,987.99
2017-12-27T00:33:54.540Z,988.04
2017-12-27T00:35:04.580Z,988.07
2017-12-27T00:36:14.648Z,988.05
2017-12-27T00:37:24.689Z,988.02
2017-12-27T00:38:34.481Z,988.04
2017-12-27T00:39:44.259Z,987.99
2017-12-27T00:40:54.039Z,987.99
2017-12-27T00:42:04.092Z,988
2017-12-27T00:43:13.879Z,987.97
2017-12-27T00:44:23.925Z,988.01
2017-12-27T00:45:33.702Z,988.05
2017-12-27T00:46:44.743Z,987.95
2017-12-27T00:47:54.540Z,987.96
2017-12-27T00:49:04.574Z,987.93
2017-12-27T00:50:14.603Z,987.95
2017-12-27T00:51:24.645Z,987.9
2017-12-27T00:52:35.043Z,987.93
2017-12-27T00:53:45.083Z,987.91
2017-12-27T00:54:54.883Z,987.91
2017-12-27T00:56:04.933Z,987.93
2017-12-27T00:57:14.972Z,987.89
2017-12-27T00:58:24.488Z,987.91
2017-12-27T00:59:34.549Z,987.96
2017-12-27T01:00:44.337Z,987.96
2017-12-27T01:01:54.401Z,987.94
2017-12-27T01:03:04.454Z,987.93
2017-12-27T01:04:14.500Z,987.89
2017-12-27T01:05:24.034Z,987.87
2017-12-27T01:06:34.097Z,987.87
2017-12-27T01:07:44.148Z,987.87
2017-12-27T01:08:54.238Z,987.85
2017-12-27T01:10:04.316Z,987.84
2017-12-27T01:11:13.845Z,987.82
2017-12-27T01:12:23.903Z,987.81
2017-12-27T01:13:33.690Z,987.79
2017-12-27T01:14:43.745Z,987.81
2017-12-27T01:15:53.276Z,987.78
2017-12-27T01:17:03.311Z,987.79
2017-12-27T01:18:13.379Z,987.74
2017-12-27T01:19:23.425Z,987.74
2017-12-27T01:20:33.222Z,987.67
2017-12-27T01:21:43.267Z,987.69
2017-12-27T01:22:53.097Z,987.68
2017-12-27T01:24:03.144Z,987.67
2017-12-27T01:25:12.919Z,987.58
2017-12-27T01:26:22.438Z,987.58
2017-12-27T01:27:32.495Z,987.53
2017-12-27T01:28:42.295Z,987.55
2017-12-27T01:29:52.101Z,987.5
2017-12-27T01:31:02.155Z,987.45
2017-12-27T01:32:12.246Z,987.39
2017-12-27T01:33:22.293Z,987.36
2017-12-27T01:34:32.351Z,987.38
2017-12-27T01:35:41.899Z,987.32
2017-12-27T01:36:51.956Z,987.36
2017-12-27T01:38:01.985Z,987.34
2017-12-27T01:39:12.157Z,987.33
2017-12-27T01:40:21.948Z,987.32
2017-12-27T01:41:31.740Z,987.25
2017-12-27T01:42:41.777Z,987.2
2017-12-27T01:43:51.588Z,987.13
2017-12-27T01:45:01.648Z,987.06
2017-12-27T01:46:11.180Z,987.05
2017-12-27T01:47:21.224Z,987.05
2017-12-27T01:48:31.269Z,987.06
2017-12-27T01:49:41.300Z,987.04
2017-12-27T01:50:51.365Z,987.03
2017-12-27T01:52:01.163Z,986.99
2017-12-27T01:53:12.618Z,986.86
2017-12-27T01:54:22.664Z,986.81
2017-12-27T01:55:32.716Z,986.79
2017-12-27T01:56:42.764Z,986.69
2017-12-27T01:57:52.802Z,986.64
2017-12-27T01:59:02.587Z,986.67
2017-12-27T02:00:12.636Z,986.66
2017-12-27T02:01:22.420Z,986.62
2017-12-27T02:02:32.205Z,986.54
2017-12-27T02:03:42.301Z,986.49
2017-12-27T02:04:52.346Z,986.52
2017-12-27T02:06:02.443Z,986.51
2017-12-27T02:07:12.481Z,986.53
2017-12-27T02:08:22.252Z,986.46
2017-12-27T02:09:32.372Z,986.45
2017-12-27T02:10:42.154Z,986.42
2017-12-27T02:11:52.197Z,986.36
2017-12-27T02:13:02.236Z,986.28
2017-12-27T02:14:12.027Z,986.25
2017-12-27T02:15:22.129Z,986.18
2017-12-27T02:16:32.181Z,986.14
2017-12-27T02:17:42.224Z,986.07
2017-12-27T02:18:52.016Z,986.09
2017-12-27T02:20:02.056Z,986.03
2017-12-27T02:21:12.155Z,986
2017-12-27T02:22:22.207Z,985.96
2017-12-27T02:23:32.254Z,985.95
2017-12-27T02:24:42.051Z,985.96
2017-12-27T02:25:52.102Z,985.99
2017-12-27T02:27:01.878Z,985.94
2017-12-27T02:28:11.651Z,985.98
2017-12-27T02:29:21.717Z,985.97
2017-12-27T02:30:31.504Z,985.94
2017-12-27T02:31:41.554Z,985.87
2017-12-27T02:32:51.125Z,985.91
2017-12-27T02:34:01.173Z,985.86
2017-12-27T02:35:11.208Z,985.87
2017-12-27T02:36:21.245Z,985.83
2017-12-27T02:37:31.297Z,985.77
2017-12-27T02:38:41.343Z,985.73
2017-12-27T02:39:51.386Z,985.69
2017-12-27T02:41:01.167Z,985.67
2017-12-27T02:42:10.958Z,985.64
2017-12-27T02:43:20.490Z,985.63
2017-12-27T02:44:30.551Z,985.64
2017-12-27T02:45:40.330Z,985.63
2017-12-27T02:46:50.365Z,985.49
2017-12-27T02:48:00.423Z,985.5
2017-12-27T02:49:10.466Z,985.52
2017-12-27T02:50:20.520Z,985.51
2017-12-27T02:51:30.303Z,985.51
2017-12-27T02:52:40.356Z,985.41
2017-12-27T02:53:50.412Z,985.32
2017-12-27T02:55:00.466Z,985.27
2017-12-27T02:56:10.519Z,985.26
2017-12-27T02:57:20.571Z,985.22
2017-12-27T02:58:30.099Z,985.23
2017-12-27T02:59:40.162Z,985.22
2017-12-27T03:00:49.944Z,985.23
2017-12-27T03:02:00.587Z,985.22
2017-12-27T03:34:03.414Z,984.53
2017-12-27T03:35:13.441Z,984.51
2017-12-27T03:36:23.484Z,984.56
2017-12-27T03:37:33.512Z,984.54
2017-12-27T03:38:43.550Z,984.49
2017-12-27T03:39:53.655Z,984.41
2017-12-27T03:41:03.697Z,984.31
2017-12-27T03:42:13.480Z,984.32
2017-12-27T03:43:23.539Z,984.25
2017-12-27T03:44:33.570Z,984.13
2017-12-27T03:45:43.619Z,984.08
2017-12-27T03:46:53.657Z,984.01
2017-12-27T03:48:03.698Z,983.93
2017-12-27T03:49:13.757Z,983.97
2017-12-27T03:50:23.532Z,983.98
2017-12-27T03:51:33.584Z,984.06
2017-12-27T03:52:43.629Z,984.04
2017-12-27T03:53:53.683Z,984.05
2017-12-27T03:55:03.721Z,983.99
2017-12-27T03:56:13.504Z,983.96
2017-12-27T03:57:23.541Z,983.91
2017-12-27T03:58:33.335Z,983.84
2017-12-27T03:59:43.400Z,983.74
2017-12-27T04:00:53.446Z,983.69
2017-12-27T04:02:03.712Z,983.64
2017-12-27T04:03:13.755Z,983.66
2017-12-27T04:04:23.551Z,983.73
2017-12-27T04:05:33.603Z,983.67
2017-12-27T04:06:43.646Z,983.64
2017-12-27T04:07:53.688Z,983.6
2017-12-27T04:09:03.728Z,983.58
2017-12-27T04:10:13.771Z,983.59
2017-12-27T04:11:23.551Z,983.58
2017-12-27T04:12:33.076Z,983.55
2017-12-27T04:13:43.126Z,983.57
2017-12-27T04:14:53.212Z,983.62
2017-12-27T04:16:03.260Z,983.66
2017-12-27T04:17:13.046Z,983.7
2017-12-27T04:18:23.084Z,983.72
2017-12-27T04:19:33.135Z,983.7
2017-12-27T04:20:43.227Z,983.65
2017-12-27T04:21:53.263Z,983.57
2017-12-27T04:23:03.312Z,983.5
2017-12-27T04:24:13.356Z,983.48
2017-12-27T04:25:23.402Z,983.46
2017-12-27T04:26:33.494Z,983.46
2017-12-27T04:27:43.531Z,983.51
2017-12-27T04:28:53.562Z,983.57
2017-12-27T04:30:03.605Z,983.61
2017-12-27T04:31:14.444Z,983.59
2017-12-27T04:32:24.028Z,983.51
2017-12-27T04:33:34.072Z,983.42
2017-12-27T04:34:44.122Z,983.34
2017-12-27T04:35:53.651Z,983.29
2017-12-27T04:37:03.707Z,983.24
2017-12-27T04:38:13.768Z,983.2
2017-12-27T04:39:23.801Z,983.18
2017-12-27T04:40:33.841Z,983.2
2017-12-27T04:41:43.887Z,983.19
2017-12-27T04:42:53.658Z,983.16
2017-12-27T04:44:03.443Z,983.12
2017-12-27T04:45:13.479Z,983.1
2017-12-27T04:46:23.518Z,983.03
2017-12-27T04:47:33.555Z,982.88
2017-12-27T04:48:43.604Z,982.88
2017-12-27T04:49:53.656Z,982.89
2017-12-27T04:51:03.712Z,982.88
2017-12-27T04:52:13.500Z,982.86
2017-12-27T04:53:23.536Z,982.85
2017-12-27T04:54:33.322Z,982.83
2017-12-27T04:55:42.894Z,982.81
2017-12-27T04:56:52.930Z,982.77
2017-12-27T04:58:02.720Z,982.71
2017-12-27T04:59:12.751Z,982.77
2017-12-27T05:00:22.808Z,982.77
2017-12-27T05:01:32.901Z,982.77
2017-12-27T05:02:42.956Z,982.69
2017-12-27T05:03:52.739Z,982.74
2017-12-27T05:05:02.784Z,982.67
2017-12-27T05:06:12.845Z,982.67
2017-12-27T05:07:22.422Z,982.69
2017-12-27T05:08:32.203Z,982.71
2017-12-27T05:09:42.242Z,982.65
2017-12-27T05:10:52.301Z,982.65
2017-12-27T05:12:02.345Z,982.61
2017-12-27T05:13:12.446Z,982.55
2017-12-27T05:14:22.482Z,982.59
2017-12-27T05:15:32.541Z,982.53
2017-12-27T05:16:42.653Z,982.53
2017-12-27T05:17:52.443Z,982.53
2017-12-27T05:19:02.533Z,982.56
2017-12-27T05:20:12.585Z,982.49
2017-12-27T05:21:22.640Z,982.47
2017-12-27T05:22:32.686Z,982.47
2017-12-27T05:23:42.736Z,982.45
2017-12-27T05:24:52.540Z,982.41
2017-12-27T05:26:02.061Z,982.4
2017-12-27T05:27:12.163Z,982.36
2017-12-27T05:28:21.982Z,982.34
2017-12-27T05:29:32.042Z,982.28
2017-12-27T05:30:42.098Z,982.26
2017-12-27T05:31:52.152Z,982.27
2017-12-27T05:33:01.986Z,982.27
2017-12-27T05:34:12.038Z,982.21
2017-12-27T05:35:22.082Z,982.23
2017-12-27T05:36:32.110Z,982.13
2017-12-27T05:37:42.846Z,982.12
2017-12-27T05:38:52.906Z,982.11
2017-12-27T05:40:03.360Z,982.06
2017-12-27T05:41:13.161Z,982.02
2017-12-27T05:42:22.942Z,982.04
2017-12-27T05:43:32.996Z,982.02
2017-12-27T05:44:43.034Z,982.03
2017-12-27T05:45:53.080Z,982.01
2017-12-27T05:47:03.108Z,981.95
2017-12-27T05:48:12.687Z,981.95
2017-12-27T05:49:22.735Z,981.94
2017-12-27T05:50:32.776Z,981.99
2017-12-27T05:51:42.824Z,982.03
2017-12-27T05:52:52.352Z,982.03
2017-12-27T05:54:02.477Z,981.97
2017-12-27T05:55:12.504Z,981.87
2017-12-27T05:56:22.545Z,981.9
2017-12-27T05:57:32.328Z,981.93
2017-12-27T05:58:41.850Z,981.93
2017-12-27T05:59:51.904Z,981.89
2017-12-27T06:01:01.961Z,981.93
2017-12-27T06:02:11.999Z,981.92
2017-12-27T06:03:22.031Z,981.9
2017-12-27T06:04:31.553Z,981.81
2017-12-27T06:05:41.394Z,981.87
2017-12-27T06:06:51.181Z,981.82
2017-12-27T06:08:00.961Z,981.77
2017-12-27T06:09:11.038Z,981.75
2017-12-27T06:10:20.506Z,981.69
2017-12-27T06:11:30.344Z,981.73
2017-12-27T06:12:40.390Z,981.76
2017-12-27T06:13:50.424Z,981.77
2017-12-27T06:15:00.482Z,981.69
2017-12-27T06:16:10.525Z,981.63
2017-12-27T06:17:20.563Z,981.62
2017-12-27T06:18:30.610Z,981.62
2017-12-27T06:19:42.055Z,981.59
2017-12-27T06:20:52.092Z,981.58
2017-12-27T06:22:01.878Z,981.62
2017-12-27T06:23:12.035Z,981.58
2017-12-27T06:24:22.097Z,981.51
2017-12-27T06:25:32.141Z,981.49
2017-12-27T06:26:41.675Z,981.43
2017-12-27T06:27:51.712Z,981.38
2017-12-27T06:29:01.755Z,981.34
2017-12-27T06:30:11.554Z,981.31
2017-12-27T06:31:22.457Z,981.28
2017-12-27T06:32:32.520Z,981.25
2017-12-27T06:33:42.571Z,981.24
2017-12-27T06:34:52.096Z,981.22
2017-12-27T06:36:02.132Z,981.22
2017-12-27T06:37:12.172Z,981.14
2017-12-27T06:38:22.225Z,981.16
2017-12-27T06:39:32.275Z,981.15
2017-12-27T06:40:42.328Z,981.16
2017-12-27T06:41:52.113Z,981.14
2017-12-27T06:43:02.150Z,981.19
2017-12-27T06:44:12.210Z,981.11
2017-12-27T06:45:22.290Z,981.07
2017-12-27T06:46:32.088Z,980.99
2017-12-27T06:47:42.129Z,981.09
2017-12-27T06:48:52.164Z,981.02
2017-12-27T06:50:01.702Z,981.08
2017-12-27T06:51:11.759Z,981.01
2017-12-27T06:52:21.849Z,981
2017-12-27T06:53:31.638Z,980.98
2017-12-27T06:54:41.427Z,981
2017-12-27T06:55:51.225Z,980.94
2017-12-27T06:57:00.987Z,980.93
2017-12-27T06:58:11.047Z,980.86
2017-12-27T06:59:21.096Z,980.82
2017-12-27T07:00:31.138Z,980.79
2017-12-27T07:01:40.680Z,980.8
2017-12-27T07:02:50.515Z,980.73
2017-12-27T07:04:00.613Z,980.72
2017-12-27T07:05:10.653Z,980.68
2017-12-27T07:06:20.692Z,980.63
2017-12-27T07:07:30.734Z,980.62
2017-12-27T07:08:40.774Z,980.61
2017-12-27T07:09:50.722Z,980.63
2017-12-27T07:11:00.765Z,980.56
2017-12-27T07:12:10.818Z,980.53
2017-12-27T07:13:20.880Z,980.5
2017-12-27T07:14:30.933Z,980.46
2017-12-27T07:15:40.720Z,980.48
2017-12-27T07:16:50.757Z,980.47
2017-12-27T07:18:00.800Z,980.45
2017-12-27T07:19:10.585Z,980.47
2017-12-27T07:20:20.616Z,980.46
2017-12-27T07:21:30.408Z,980.46
2017-12-27T07:22:40.445Z,980.49
2017-12-27T07:23:50.505Z,980.46
2017-12-27T07:25:00.551Z,980.43
2017-12-27T07:26:10.607Z,980.41
2017-12-27T07:27:20.652Z,980.39
2017-12-27T07:28:30.440Z,980.38
2017-12-27T07:29:40.481Z,980.38
2017-12-27T07:30:50.268Z,980.35
2017-12-27T07:32:00.327Z,980.32
2017-12-27T07:33:10.119Z,980.32
2017-12-27T07:34:20.154Z,980.23
2017-12-27T07:35:29.966Z,980.28
2017-12-27T07:36:39.737Z,980.27
2017-12-27T07:37:49.790Z,980.27
2017-12-27T07:38:59.850Z,980.3
2017-12-27T07:40:09.886Z,980.33
2017-12-27T07:41:19.934Z,980.32
2017-12-27T07:42:29.735Z,980.32
2017-12-27T07:43:39.818Z,980.31
2017-12-27T07:44:49.648Z,980.28
2017-12-27T07:45:59.693Z,980.25
2017-12-27T07:47:09.732Z,980.22
2017-12-27T07:48:19.518Z,980.18
2017-12-27T07:49:29.560Z,980.24
2017-12-27T07:50:39.626Z,980.16
2017-12-27T07:51:49.670Z,980.14
2017-12-27T07:52:59.705Z,980.1
2017-12-27T07:54:09.742Z,980.06
2017-12-27T07:55:19.789Z,980.04
2017-12-27T07:56:29.872Z,979.97
2017-12-27T07:57:39.912Z,980.02
2017-12-27T07:58:49.705Z,979.94
2017-12-27T07:59:59.786Z,979.94
2017-12-27T08:01:09.832Z,979.88
2017-12-27T08:02:19.651Z,979.86
2017-12-27T08:03:29.709Z,979.9
2017-12-27T08:04:39.763Z,979.88
2017-12-27T08:05:49.808Z,979.83
2017-12-27T08:06:59.852Z,979.81
2017-12-27T08:08:09.940Z,979.77
2017-12-27T08:09:19.716Z,979.84
2017-12-27T08:10:29.921Z,979.86
2017-12-27T08:11:39.448Z,979.8
2017-12-27T08:12:49.236Z,979.77
2017-12-27T08:13:59.067Z,979.77
2017-12-27T08:15:09.121Z,979.77
2017-12-27T08:16:18.898Z,979.73
2017-12-27T08:17:28.942Z,979.67
2017-12-27T08:18:38.737Z,979.67
2017-12-27T08:19:48.786Z,979.62
2017-12-27T08:20:58.820Z,979.61
2017-12-27T08:22:08.864Z,979.58
2017-12-27T08:23:18.913Z,979.59
2017-12-27T08:24:28.970Z,979.6
2017-12-27T08:25:39.047Z,979.55
2017-12-27T08:26:48.826Z,979.61
2017-12-27T08:27:59.346Z,979.6
2017-12-27T08:29:09.403Z,979.55
2017-12-27T08:30:19.449Z,979.52
2017-12-27T08:31:29.511Z,979.49
2017-12-27T08:32:39.557Z,979.48
2017-12-27T08:33:49.608Z,979.55
2017-12-27T08:34:59.648Z,979.46
2017-12-27T08:36:09.707Z,979.52
2017-12-27T08:37:19.764Z,979.57
2017-12-27T08:38:29.559Z,979.57
2017-12-27T08:39:39.629Z,979.53
2017-12-27T08:40:49.667Z,979.53
2017-12-27T08:41:59.444Z,979.52
2017-12-27T08:43:09.748Z,979.5
2017-12-27T08:44:19.543Z,979.46
2017-12-27T08:45:29.588Z,979.4
2017-12-27T08:46:39.646Z,979.38
2017-12-27T08:47:49.429Z,979.35
2017-12-27T08:48:59.224Z,979.32
2017-12-27T08:50:09.277Z,979.3
2017-12-27T08:51:19.323Z,979.27
2017-12-27T08:52:29.388Z,979.32
2017-12-27T08:53:39.449Z,979.38
2017-12-27T08:54:49.494Z,979.33
2017-12-27T08:55:59.554Z,979.36
2017-12-27T08:57:09.620Z,979.35
2017-12-27T08:58:19.689Z,979.27
2017-12-27T08:59:29.483Z,979.35
2017-12-27T09:00:40.093Z,979.32
2017-12-27T09:01:49.869Z,979.28
2017-12-27T09:02:59.946Z,979.35
2017-12-27T09:04:10.009Z,979.28
2017-12-27T09:05:20.134Z,979.38
2017-12-27T09:06:30.229Z,979.38
2017-12-27T09:07:40.028Z,979.39
2017-12-27T09:08:50.105Z,979.28
2017-12-27T09:09:59.896Z,979.28
2017-12-27T09:11:09.944Z,979.24
2017-12-27T09:12:19.787Z,979.32
2017-12-27T09:13:29.837Z,979.36
2017-12-27T09:14:39.618Z,979.29
2017-12-27T09:15:49.665Z,979.17
2017-12-27T09:16:59.716Z,979.14
2017-12-27T09:18:09.505Z,979.11
2017-12-27T09:19:19.551Z,979.11
2017-12-27T09:20:29.604Z,979.08
2017-12-27T09:21:39.664Z,979.09
2017-12-27T09:22:49.728Z,979.14
2017-12-27T09:23:59.823Z,979.12
2017-12-27T09:25:09.861Z,979.1
2017-12-27T09:26:19.903Z,979.09
2017-12-27T09:27:29.703Z,978.98
2017-12-27T09:28:39.760Z,978.92
2017-12-27T09:29:49.597Z,978.87
2017-12-27T09:30:59.659Z,978.88
2017-12-27T09:32:09.472Z,978.87
2017-12-27T09:33:19.536Z,978.89
2017-12-27T09:34:29.374Z,978.94
2017-12-27T09:35:39.420Z,978.92
2017-12-27T09:36:49.223Z,978.94
2017-12-27T09:37:59.007Z,978.91
2017-12-27T09:39:09.057Z,978.88
2017-12-27T09:40:18.896Z,978.87
2017-12-27T09:41:28.739Z,978.89
2017-12-27T09:42:38.532Z,978.98
2017-12-27T09:43:48.573Z,978.95
2017-12-27T09:44:58.375Z,978.91
2017-12-27T09:46:08.159Z,978.86
2017-12-27T09:47:18.205Z,978.79
2017-12-27T09:48:27.990Z,978.74
2017-12-27T09:49:38.038Z,978.7
2017-12-27T09:50:47.616Z,978.77
2017-12-27T09:51:57.666Z,978.75
2017-12-27T09:53:07.733Z,978.69
2017-12-27T09:54:17.795Z,978.6
2017-12-27T09:55:27.577Z,978.48
2017-12-27T09:56:37.619Z,978.49
2017-12-27T09:57:47.709Z,978.48
2017-12-27T09:58:57.809Z,978.47
2017-12-27T10:00:07.887Z,978.47
2017-12-27T10:01:17.939Z,978.48
2017-12-27T10:02:29.030Z,978.55
2017-12-27T10:03:38.822Z,978.58
2017-12-27T10:04:48.961Z,978.69
2017-12-27T10:05:58.758Z,978.59
2017-12-27T10:07:08.809Z,978.54
2017-12-27T10:08:18.872Z,978.52
2017-12-27T10:09:28.665Z,978.54
2017-12-27T10:10:38.448Z,978.48
2017-12-27T10:11:48.510Z,978.43
2017-12-27T10:12:58.303Z,978.42
2017-12-27T10:14:08.103Z,978.43
2017-12-27T10:15:18.165Z,978.35
2017-12-27T10:16:28.253Z,978.3
2017-12-27T10:17:38.040Z,978.31
2017-12-27T10:18:47.817Z,978.24
2017-12-27T10:19:57.874Z,978.21
2017-12-27T10:21:07.979Z,978.16
2017-12-27T10:22:18.024Z,978.22
2017-12-27T10:23:28.063Z,978.21
2017-12-27T10:24:38.115Z,978.17
2017-12-27T10:25:48.184Z,978.13
2017-12-27T10:26:57.977Z,978.13
2017-12-27T10:28:07.775Z,978.09
2017-12-27T10:29:17.871Z,978.1
2017-12-27T10:30:27.925Z,978.1
2017-12-27T10:31:37.720Z,978.06
2017-12-27T10:32:47.496Z,977.99
2017-12-27T10:33:57.303Z,977.99
2017-12-27T10:35:07.377Z,978.01
2017-12-27T10:36:16.901Z,977.99
2017-12-27T10:37:26.959Z,977.92
2017-12-27T10:38:37.013Z,977.83
2017-12-27T10:39:46.853Z,977.71
2017-12-27T10:40:56.655Z,977.71
2017-12-27T10:42:06.705Z,977.69
2017-12-27T10:43:16.529Z,977.64
2017-12-27T10:44:26.327Z,977.6
2017-12-27T10:45:36.417Z,977.58
2017-12-27T10:46:46.458Z,977.56
2017-12-27T10:47:56.514Z,977.59
2017-12-27T10:49:06.301Z,977.58
2017-12-27T10:50:16.373Z,977.49
2017-12-27T10:51:26.163Z,977.43
2017-12-27T10:52:36.213Z,977.45
2017-12-27T10:53:46.010Z,977.45
2017-12-27T10:54:56.066Z,977.39
2017-12-27T10:56:05.857Z,977.33
2017-12-27T10:57:15.973Z,977.34
2017-12-27T10:58:26.045Z,977.33
2017-12-27T10:59:36.103Z,977.38
2017-12-27T11:00:45.889Z,977.39
2017-12-27T11:01:55.701Z,977.28
2017-12-27T11:03:05.750Z,977.22
2017-12-27T11:04:15.603Z,977.13
2017-12-27T11:05:25.682Z,977.15
2017-12-27T11:06:35.737Z,977.14
2017-12-27T11:07:45.544Z,977.08
2017-12-27T11:08:55.666Z,977.07
2017-12-27T11:10:05.704Z,976.99
2017-12-27T11:11:15.765Z,976.94
2017-12-27T11:12:25.297Z,976.88
2017-12-27T11:13:35.400Z,976.84
2017-12-27T11:14:45.451Z,976.84
2017-12-27T11:15:55.250Z,976.77
2017-12-27T11:17:05.293Z,976.76
2017-12-27T11:18:15.356Z,976.68
2017-12-27T11:19:25.409Z,976.65
2017-12-27T11:20:35.518Z,976.61
2017-12-27T11:21:45.301Z,976.55
2017-12-27T11:22:54.894Z,976.55
2017-12-27T11:24:04.949Z,976.51
2017-12-27T11:25:15.001Z,976.53
2017-12-27T11:26:25.054Z,976.51
2017-12-27T11:27:35.119Z,976.55
2017-12-27T11:28:44.904Z,976.46
2017-12-27T11:29:54.957Z,976.51
2017-12-27T11:31:04.759Z,976.49
2017-12-27T11:32:14.616Z,976.5
2017-12-27T11:33:24.664Z,976.51
2017-12-27T11:34:34.461Z,976.47
2017-12-27T11:35:44.513Z,976.46
2017-12-27T11:36:54.565Z,976.39
2017-12-27T11:38:04.637Z,976.36
2017-12-27T11:39:14.709Z,976.29
2017-12-27T11:40:24.759Z,976.24
2017-12-27T11:41:34.568Z,976.27
2017-12-27T11:42:44.629Z,976.28
2017-12-27T11:43:54.679Z,976.21
2017-12-27T11:45:04.470Z,976.22
2017-12-27T11:46:14.519Z,976.12
2017-12-27T11:47:24.585Z,976.07
2017-12-27T11:48:34.648Z,976.01
2017-12-27T11:49:44.738Z,975.97
2017-12-27T11:50:54.799Z,975.93
2017-12-27T11:52:04.077Z,975.92
2017-12-27T11:53:14.137Z,975.86
2017-12-27T11:54:23.949Z,975.88
2017-12-27T11:55:33.489Z,975.85
2017-12-27T11:56:43.273Z,975.74
2017-12-27T11:57:53.328Z,975.83
2017-12-27T11:59:03.392Z,975.76
2017-12-27T12:00:13.440Z,975.88
2017-12-27T12:01:23.526Z,975.8
2017-12-27T12:02:33.587Z,975.81
2017-12-27T12:03:43.654Z,975.7
2017-12-27T12:04:53.694Z,975.7
2017-12-27T12:06:03.219Z,975.64
2017-12-27T12:07:13.019Z,975.69
2017-12-27T12:08:22.811Z,975.53
2017-12-27T12:09:32.605Z,975.5
2017-12-27T12:10:42.663Z,975.51
2017-12-27T12:11:52.707Z,975.52
2017-12-27T12:13:02.608Z,975.56
2017-12-27T12:14:12.396Z,975.67
2017-12-27T12:15:22.195Z,975.6
2017-12-27T12:16:32.237Z,975.45
2017-12-27T12:17:42.285Z,975.45
2017-12-27T12:18:52.076Z,975.43
2017-12-27T12:20:01.877Z,975.28
2017-12-27T12:21:11.934Z,975.3
2017-12-27T12:22:21.988Z,975.31
2017-12-27T12:23:31.784Z,975.2
2017-12-27T12:24:41.591Z,975.25
2017-12-27T12:25:51.402Z,975.23
2017-12-27T12:27:01.173Z,975.31
2017-12-27T12:28:11.221Z,975.19
2017-12-27T12:29:21.014Z,975.2
2017-12-27T12:30:31.074Z,975.14
2017-12-27T12:31:40.873Z,975.11
2017-12-27T12:32:50.949Z,975.14
2017-12-27T12:34:01.005Z,975.11
2017-12-27T12:35:10.570Z,975.02
2017-12-27T12:36:20.369Z,975.02
2017-12-27T12:37:30.147Z,974.99
2017-12-27T12:38:40.195Z,975.06
2017-12-27T12:39:50.256Z,975.06
2017-12-27T12:41:00.300Z,975.03
2017-12-27T12:42:10.357Z,974.94
2017-12-27T12:43:20.134Z,974.96
2017-12-27T12:44:30.188Z,974.82
2017-12-27T12:45:40.293Z,974.84
2017-12-27T12:46:50.092Z,974.87
2017-12-27T12:48:00.152Z,974.9
2017-12-27T12:49:10.243Z,974.78
2017-12-27T12:50:20.294Z,974.8
2017-12-27T12:51:30.396Z,974.78
2017-12-27T12:52:40.457Z,974.71
2017-12-27T12:53:50.238Z,974.72
2017-12-27T12:55:00.293Z,974.69
2017-12-27T12:56:10.073Z,974.68
2017-12-27T12:57:19.870Z,974.61
2017-12-27T12:58:29.932Z,974.59
2017-12-27T12:59:39.753Z,974.67
2017-12-27T13:00:49.560Z,974.61
2017-12-27T13:01:59.623Z,974.62
2017-12-27T13:03:09.668Z,974.59
2017-12-27T13:04:19.474Z,974.51
2017-12-27T13:05:29.014Z,974.58
2017-12-27T13:06:38.547Z,974.49
2017-12-27T13:07:48.655Z,974.46
2017-12-27T13:08:58.458Z,974.48
2017-12-27T13:10:08.243Z,974.56
2017-12-27T13:11:18.035Z,974.53
2017-12-27T13:12:28.107Z,974.53
2017-12-27T13:13:38.158Z,974.57
2017-12-27T13:14:48.212Z,974.52
2017-12-27T13:15:58.014Z,974.5
2017-12-27T13:17:08.115Z,974.55
2017-12-27T13:18:18.179Z,974.41
2017-12-27T13:19:28.227Z,974.47
2017-12-27T13:20:38.293Z,974.42
2017-12-27T13:21:48.397Z,974.36
2017-12-27T13:22:58.249Z,974.36
2017-12-27T13:24:08.290Z,974.35
2017-12-27T13:25:17.817Z,974.31
2017-12-27T13:26:27.878Z,974.27
2017-12-27T13:27:37.924Z,974.3
2017-12-27T13:28:47.762Z,974.24
2017-12-27T13:29:57.822Z,974.28
2017-12-27T13:31:07.876Z,974.2
2017-12-27T13:32:17.917Z,974.14
2017-12-27T13:33:28.020Z,974.1
2017-12-27T13:34:38.092Z,974.07
2017-12-27T13:35:48.153Z,974.05
2017-12-27T13:36:57.925Z,974.04
2017-12-27T13:38:07.703Z,974.08
2017-12-27T13:39:17.768Z,974.05
2017-12-27T13:40:27.825Z,974.07
2017-12-27T13:41:37.863Z,974
2017-12-27T13:42:47.679Z,974.11
2017-12-27T13:43:57.519Z,974.05
2017-12-27T13:45:07.575Z,974.23
2017-12-27T13:46:17.676Z,974.07
2017-12-27T13:47:27.737Z,974.05
2017-12-27T13:48:37.804Z,974
2017-12-27T13:49:47.868Z,974.01
2017-12-27T13:50:57.914Z,974.09
2017-12-27T13:52:08.029Z,973.99
2017-12-27T13:53:18.080Z,973.84
2017-12-27T13:54:28.146Z,973.93
2017-12-27T13:55:38.217Z,973.94
2017-12-27T13:56:48.269Z,973.92
2017-12-27T13:57:58.108Z,973.92
2017-12-27T13:59:08.164Z,973.98
2017-12-27T14:00:18.229Z,973.94
2017-12-27T14:01:28.030Z,973.94
2017-12-27T14:02:38.097Z,973.95
2017-12-27T14:03:48.146Z,973.92
2017-12-27T14:04:58.218Z,973.97
2017-12-27T14:06:08.270Z,974.02
2017-12-27T14:07:18.328Z,973.98
2017-12-27T14:08:28.388Z,973.9
2017-12-27T14:09:38.506Z,973.87
2017-12-27T14:10:48.596Z,973.92
2017-12-27T14:11:58.129Z,973.9
2017-12-27T14:13:08.177Z,974.03
2017-12-27T14:14:17.739Z,973.89
2017-12-27T14:15:27.528Z,973.88
2017-12-27T14:16:37.596Z,973.82
2017-12-27T14:17:47.387Z,973.97
2017-12-27T14:18:57.447Z,973.89
2017-12-27T14:20:07.490Z,973.84
2017-12-27T14:21:17.606Z,973.77
2017-12-27T14:22:27.650Z,973.82
2017-12-27T14:23:37.704Z,973.86
2017-12-27T14:24:47.787Z,973.88
2017-12-27T14:25:57.574Z,973.85
2017-12-27T14:27:07.395Z,973.88
2017-12-27T14:28:17.450Z,973.87
2017-12-27T14:29:27.256Z,973.83
2017-12-27T14:30:37.317Z,973.84
2017-12-27T14:31:47.121Z,973.9
2017-12-27T14:32:57.220Z,973.86
2017-12-27T14:34:06.500Z,973.9
2017-12-27T14:35:16.573Z,973.87
2017-12-27T14:36:26.376Z,973.86
2017-12-27T14:37:36.447Z,973.84
2017-12-27T14:38:46.513Z,973.81
2017-12-27T14:39:56.570Z,973.8
2017-12-27T14:41:06.644Z,973.83
2017-12-27T14:42:16.499Z,973.75
2017-12-27T14:43:26.567Z,973.74
2017-12-27T14:44:36.639Z,973.74
2017-12-27T14:45:46.689Z,973.72
2017-12-27T14:46:56.764Z,973.66
2017-12-27T14:48:06.820Z,973.67
2017-12-27T14:49:16.891Z,973.69
2017-12-27T14:50:27.013Z,973.7
2017-12-27T14:51:37.071Z,973.73
2017-12-27T14:52:47.121Z,973.71
2017-12-27T14:53:57.181Z,973.68
2017-12-27T14:55:07.229Z,973.67
2017-12-27T14:56:17.339Z,973.62
2017-12-27T14:57:27.125Z,973.63
2017-12-27T14:58:37.177Z,973.7
2017-12-27T14:59:46.989Z,973.66
2017-12-27T15:00:56.524Z,973.62
2017-12-27T15:02:06.574Z,973.64
2017-12-27T15:03:16.629Z,973.76
2017-12-27T15:04:26.464Z,973.66
2017-12-27T15:05:36.553Z,973.62
2017-12-27T15:06:46.618Z,973.64